Time;durP1;ratioP1;P1;durP2;ratioP2;P2;SDS_P1;SDS_P2;PMS_P1;PMS_P2;Temp;Humidity;BMP_temperature;BMP_pressure;BME280_temperature;BME280_humidity;BME280_pressure;Samples;Min_cycle;Max_cycle;Signal;HPM_P1;HPM_P2
2020/12/21 00:01:46;;;;;;;17.10;11.50;;;3.20;77.10;;;;;;5043750;28;20045;-69
2020/12/21 00:04:12;;;;;;;16.73;11.13;;;3.20;77.40;;;;;;5041956;28;20044;-69
2020/12/21 00:06:38;;;;;;;19.23;12.15;;;3.30;77.50;;;;;;5043607;28;20033;-69
2020/12/21 00:09:03;;;;;;;19.67;12.77;;;3.30;77.20;;;;;;5043067;28;20321;-69
2020/12/21 00:11:33;;;;;;;18.90;11.80;;;3.20;77.20;;;;;;5045014;28;20030;-70
2020/12/21 00:13:59;;;;;;;18.13;11.75;;;3.20;77.10;;;;;;5043029;28;20220;-69
2020/12/21 00:16:25;;;;;;;18.13;11.68;;;3.30;77.00;;;;;;5042234;28;20029;-69
2020/12/21 00:18:50;;;;;;;20.48;13.18;;;3.30;77.30;;;;;;5041769;28;20043;-69
2020/12/21 00:21:16;;;;;;;17.83;11.50;;;3.30;77.40;;;;;;5043026;28;20303;-69
2020/12/21 00:23:41;;;;;;;18.83;12.85;;;3.20;77.60;;;;;;5042859;28;20071;-69
2020/12/21 00:26:10;;;;;;;17.92;11.98;;;3.30;77.80;;;;;;5044074;28;20033;-69
2020/12/21 00:28:35;;;;;;;19.60;11.77;;;3.30;77.70;;;;;;5043239;28;20050;-70
2020/12/21 00:31:01;;;;;;;18.13;11.63;;;3.30;77.40;;;;;;5043127;28;20038;-69
2020/12/21 00:33:30;;;;;;;17.65;12.00;;;3.30;77.40;;;;;;5042822;28;20033;-69
2020/12/21 00:35:56;;;;;;;17.80;11.82;;;3.40;77.10;;;;;;5024992;28;20049;-69
2020/12/21 00:38:21;;;;;;;17.25;11.30;;;3.40;77.30;;;;;;5044571;28;20364;-69
2020/12/21 00:40:47;;;;;;;18.13;11.43;;;3.40;77.10;;;;;;5042038;28;20044;-70
2020/12/21 00:43:12;;;;;;;16.20;11.48;;;3.40;77.30;;;;;;5025164;28;20064;-70
2020/12/21 00:45:38;;;;;;;17.40;11.35;;;3.40;77.30;;;;;;5041831;28;20034;-69
2020/12/21 00:48:04;;;;;;;18.85;11.57;;;3.40;77.40;;;;;;5042718;28;20033;-69
2020/12/21 00:50:31;;;;;;;16.08;11.02;;;3.40;77.20;;;;;;5026872;28;20037;-69
2020/12/21 00:52:56;;;;;;;15.90;11.20;;;3.40;77.50;;;;;;5025618;28;20040;-69
2020/12/21 00:55:22;;;;;;;17.75;11.55;;;3.40;77.50;;;;;;5041282;28;20101;-69
2020/12/21 00:57:47;;;;;;;19.63;11.77;;;3.50;77.70;;;;;;5042465;28;20029;-69
2020/12/21 01:00:13;;;;;;;16.85;10.63;;;3.50;78.00;;;;;;5008847;28;20025;-69
2020/12/21 01:02:39;;;;;;;18.25;11.00;;;3.50;78.10;;;;;;5041350;28;20038;-69
2020/12/21 01:05:04;;;;;;;15.45;10.70;;;3.60;77.70;;;;;;5042902;28;20055;-69
2020/12/21 01:07:30;;;;;;;16.15;10.20;;;3.70;77.90;;;;;;5041473;28;20038;-69
2020/12/21 01:09:55;;;;;;;16.08;10.23;;;3.60;77.20;;;;;;5041252;28;20034;-69
2020/12/21 01:12:21;;;;;;;13.48;9.38;;;3.60;77.40;;;;;;5024660;28;20030;-69
2020/12/21 01:14:48;;;;;;;15.88;10.10;;;3.60;77.00;;;;;;5042196;28;20025;-69
2020/12/21 01:17:13;;;;;;;14.77;10.25;;;3.60;76.90;;;;;;5044387;28;20190;-69
2020/12/21 01:19:39;;;;;;;13.25;9.38;;;3.60;76.80;;;;;;5042685;28;20044;-70
2020/12/21 01:22:06;;;;;;;14.23;9.43;;;3.60;76.50;;;;;;5024623;28;20116;-69
2020/12/21 01:24:32;;;;;;;14.57;9.98;;;3.70;77.00;;;;;;5042139;28;20321;-69
2020/12/21 01:26:57;;;;;;;14.73;10.23;;;3.50;77.10;;;;;;5041141;28;20037;-69
2020/12/21 01:29:23;;;;;;;14.20;9.73;;;3.60;77.30;;;;;;5042993;28;20060;-69
2020/12/21 01:31:48;;;;;;;13.65;9.40;;;3.60;77.30;;;;;;5024960;28;20103;-69
2020/12/21 01:34:14;;;;;;;13.65;9.95;;;3.60;77.10;;;;;;5024674;28;20079;-69
2020/12/21 01:36:40;;;;;;;13.23;9.75;;;3.70;77.70;;;;;;5041146;28;20087;-69
2020/12/21 01:39:06;;;;;;;13.55;9.65;;;3.70;77.70;;;;;;5027617;28;20252;-69
2020/12/21 01:41:32;;;;;;;12.73;9.43;;;3.80;78.10;;;;;;5047522;28;20037;-69
2020/12/21 01:43:57;;;;;;;14.55;9.70;;;3.80;77.60;;;;;;5045812;28;20108;-69
2020/12/21 01:46:23;;;;;;;15.02;10.02;;;3.80;77.30;;;;;;5045258;28;20037;-70
2020/12/21 01:48:49;;;;;;;13.73;9.55;;;3.80;77.00;;;;;;5044564;28;20037;-69
2020/12/21 01:51:28;;;;;;;14.30;9.90;;;3.80;77.40;;;;;;5044804;28;20194;-69
2020/12/21 01:53:54;;;;;;;13.75;9.70;;;3.80;77.30;;;;;;5029640;28;20040;-70
2020/12/21 01:56:20;;;;;;;18.42;9.65;;;3.80;77.60;;;;;;5047044;28;20077;-69
2020/12/21 01:58:46;;;;;;;13.27;9.63;;;3.80;77.60;;;;;;5044886;28;20380;-69
2020/12/21 02:01:13;;;;;;;14.18;9.77;;;3.90;77.70;;;;;;5044827;28;20037;-69
2020/12/21 02:03:39;;;;;;;13.93;9.63;;;3.90;77.60;;;;;;5045559;28;20041;-69
2020/12/21 02:06:04;;;;;;;13.25;9.55;;;3.90;77.50;;;;;;5044438;28;20083;-69
2020/12/21 02:08:30;;;;;;;14.00;9.70;;;3.90;77.60;;;;;;5047559;28;20029;-70
2020/12/21 02:10:55;;;;;;;15.05;10.23;;;3.90;77.30;;;;;;5045923;28;20033;-69
2020/12/21 02:13:21;;;;;;;14.82;10.43;;;3.90;77.40;;;;;;5045717;28;20061;-69
2020/12/21 02:15:47;;;;;;;14.50;10.02;;;3.90;77.40;;;;;;5044497;28;20038;-69
2020/12/21 02:18:12;;;;;;;12.75;9.90;;;3.90;77.80;;;;;;5044631;28;20249;-69
2020/12/21 02:20:38;;;;;;;15.75;10.35;;;3.90;78.10;;;;;;5045183;28;20021;-69
2020/12/21 02:23:03;;;;;;;13.18;9.70;;;3.90;78.10;;;;;;5046984;28;20072;-69
2020/12/21 02:25:29;;;;;;;14.73;10.02;;;4.00;78.10;;;;;;5044036;28;20384;-70
2020/12/21 02:27:54;;;;;;;13.57;9.38;;;4.00;77.60;;;;;;5018808;28;20038;-69
2020/12/21 02:30:20;;;;;;;12.98;9.43;;;4.00;77.80;;;;;;5023967;28;20088;-70
2020/12/21 02:32:45;;;;;;;16.13;9.77;;;4.00;77.70;;;;;;5025705;28;20092;-70
2020/12/21 02:35:11;;;;;;;15.15;10.65;;;4.10;77.90;;;;;;5007285;28;20041;-69
2020/12/21 02:37:36;;;;;;;13.93;10.23;;;4.00;77.70;;;;;;5007526;28;20037;-69
2020/12/21 02:40:03;;;;;;;14.50;10.27;;;4.10;77.70;;;;;;5034762;28;20044;-69
2020/12/21 02:42:29;;;;;;;15.02;10.18;;;4.00;77.50;;;;;;5043371;28;20135;-69
2020/12/21 02:44:54;;;;;;;15.48;10.05;;;4.00;77.80;;;;;;5044348;28;20061;-69
2020/12/21 02:47:20;;;;;;;13.95;9.75;;;4.10;77.70;;;;;;5046289;28;20292;-69
2020/12/21 02:49:45;;;;;;;14.82;10.30;;;4.10;78.10;;;;;;5043265;28;20040;-69
2020/12/21 02:52:11;;;;;;;13.68;9.27;;;4.00;78.40;;;;;;5043215;28;20041;-70
2020/12/21 02:54:36;;;;;;;13.43;9.95;;;4.10;78.30;;;;;;5044425;28;20109;-69
2020/12/21 02:57:02;;;;;;;14.38;10.27;;;4.10;78.40;;;;;;5043424;28;20038;-69
2020/12/21 02:59:27;;;;;;;15.52;10.43;;;4.20;78.40;;;;;;5045289;28;20082;-69
2020/12/21 03:01:53;;;;;;;15.63;10.02;;;4.20;78.40;;;;;;5043150;28;20329;-69
2020/12/21 03:04:18;;;;;;;15.55;10.57;;;4.20;78.60;;;;;;5044554;28;20063;-69
2020/12/21 03:06:44;;;;;;;15.23;9.57;;;4.40;78.60;;;;;;5043302;28;20033;-69
2020/12/21 03:09:09;;;;;;;15.80;9.75;;;4.30;78.80;;;;;;5043478;28;20321;-69
2020/12/21 03:11:35;;;;;;;13.25;9.48;;;4.20;79.10;;;;;;5045113;28;20034;-69
2020/12/21 03:14:01;;;;;;;13.05;9.18;;;4.20;79.00;;;;;;5026938;28;20248;-69
2020/12/21 03:16:26;;;;;;;14.60;10.15;;;4.30;78.90;;;;;;5044397;28;20065;-69
2020/12/21 03:18:52;;;;;;;13.68;9.95;;;4.40;78.90;;;;;;5043320;28;20101;-70
2020/12/21 03:21:17;;;;;;;16.08;10.27;;;4.30;78.90;;;;;;5026672;28;20131;-69
2020/12/21 03:23:43;;;;;;;15.18;10.02;;;4.40;79.10;;;;;;5044825;28;20029;-69
2020/12/21 03:26:09;;;;;;;16.23;10.15;;;4.40;79.20;;;;;;5044506;28;20037;-69
2020/12/21 03:28:35;;;;;;;17.83;9.60;;;4.40;79.20;;;;;;5043039;28;20045;-69
2020/12/21 03:31:00;;;;;;;13.77;9.48;;;4.40;79.30;;;;;;5042733;28;20231;-69
2020/12/21 03:33:26;;;;;;;13.27;10.07;;;4.40;79.40;;;;;;5042727;28;20264;-69
2020/12/21 03:35:51;;;;;;;13.30;9.65;;;4.50;79.40;;;;;;5045573;28;20033;-70
2020/12/21 03:38:17;;;;;;;14.80;10.20;;;4.50;78.90;;;;;;5044254;28;20037;-69
2020/12/21 03:40:42;;;;;;;13.10;9.85;;;4.50;79.10;;;;;;5043701;28;20034;-69
2020/12/21 03:43:08;;;;;;;17.08;9.85;;;4.40;79.10;;;;;;5043621;28;20037;-69
2020/12/21 03:45:33;;;;;;;15.43;9.68;;;4.40;79.00;;;;;;5026060;28;20029;-69
2020/12/21 03:47:59;;;;;;;13.75;9.48;;;4.40;79.00;;;;;;5042465;28;20088;-69
2020/12/21 03:50:24;;;;;;;15.25;10.45;;;4.50;79.30;;;;;;5027947;28;20071;-69
2020/12/21 03:52:50;;;;;;;15.32;10.00;;;4.50;79.30;;;;;;5026308;28;20101;-70
2020/12/21 03:55:16;;;;;;;14.35;9.77;;;4.50;79.50;;;;;;5043341;28;20394;-70
2020/12/21 03:57:41;;;;;;;13.35;9.15;;;4.60;79.80;;;;;;5043509;28;20096;-69
2020/12/21 04:00:07;;;;;;;14.60;10.15;;;4.60;79.60;;;;;;5042001;28;20072;-69
2020/12/21 04:02:34;;;;;;;13.52;9.55;;;4.60;79.50;;;;;;5044008;28;20075;-69
2020/12/21 04:05:04;;;;;;;13.85;9.90;;;4.60;79.40;;;;;;5026346;28;20033;-69
2020/12/21 04:07:29;;;;;;;13.40;9.25;;;4.60;79.40;;;;;;5042020;28;20040;-70
2020/12/21 04:09:55;;;;;;;12.88;9.20;;;4.50;79.30;;;;;;5043257;28;20033;-70
2020/12/21 04:12:20;;;;;;;12.02;8.82;;;4.60;79.40;;;;;;5043326;28;20205;-70
2020/12/21 04:14:46;;;;;;;13.30;8.73;;;4.60;79.30;;;;;;5045250;28;20313;-70
2020/12/21 04:17:11;;;;;;;12.80;8.85;;;4.70;79.30;;;;;;5042394;28;20045;-70
2020/12/21 04:19:37;;;;;;;12.88;9.25;;;4.70;79.40;;;;;;5041958;28;20041;-69
2020/12/21 04:22:02;;;;;;;12.82;9.30;;;4.70;79.40;;;;;;5041853;28;20102;-69
2020/12/21 04:24:28;;;;;;;14.75;9.52;;;4.70;79.70;;;;;;5042005;28;20325;-69
2020/12/21 04:26:53;;;;;;;14.13;9.60;;;4.70;79.60;;;;;;5042889;28;20321;-70
2020/12/21 04:29:19;;;;;;;13.35;9.90;;;4.70;79.90;;;;;;5044693;28;20049;-70
2020/12/21 04:31:44;;;;;;;12.80;9.25;;;4.70;80.00;;;;;;5041671;28;20041;-69
2020/12/21 04:34:10;;;;;;;13.35;8.93;;;4.80;79.90;;;;;;5042658;28;20034;-70
2020/12/21 04:36:35;;;;;;;13.95;9.57;;;4.80;80.40;;;;;;5041801;28;20061;-70
2020/12/21 04:39:01;;;;;;;14.40;10.13;;;4.80;80.30;;;;;;5041568;28;20044;-70
2020/12/21 04:41:27;;;;;;;11.50;8.93;;;4.90;80.20;;;;;;5043204;28;20029;-70
2020/12/21 04:43:54;;;;;;;14.43;9.40;;;4.90;80.10;;;;;;5025615;28;20041;-70
2020/12/21 04:46:20;;;;;;;14.02;9.57;;;4.90;80.30;;;;;;5025422;28;20045;-70
2020/12/21 04:48:45;;;;;;;12.43;8.90;;;4.90;80.50;;;;;;5025303;28;20061;-69
2020/12/21 04:51:11;;;;;;;12.88;9.25;;;4.90;80.50;;;;;;5041652;28;20252;-70
2020/12/21 04:53:39;;;;;;;13.98;9.15;;;4.90;80.50;;;;;;5043296;28;20191;-70
2020/12/21 04:56:05;;;;;;;12.95;9.40;;;4.90;80.10;;;;;;5025138;28;20046;-70
2020/12/21 04:58:31;;;;;;;13.40;9.70;;;4.90;80.10;;;;;;5042794;28;20048;-70
2020/12/21 05:00:56;;;;;;;14.25;9.13;;;4.90;80.30;;;;;;5042623;28;20033;-70
2020/12/21 05:03:22;;;;;;;12.90;9.52;;;4.90;80.20;;;;;;5041341;28;20076;-69
2020/12/21 05:05:47;;;;;;;13.43;9.10;;;4.90;80.00;;;;;;5043129;28;20037;-70
2020/12/21 05:08:17;;;;;;;13.80;10.07;;;4.90;80.00;;;;;;5040825;28;20117;-70
2020/12/21 05:10:55;;;;;;;13.18;10.00;;;4.90;79.90;;;;;;5041700;28;20045;-70
2020/12/21 05:13:21;;;;;;;14.20;9.20;;;4.90;79.90;;;;;;5046000;28;20352;-69
2020/12/21 05:15:50;;;;;;;13.30;9.60;;;4.90;80.00;;;;;;5045278;28;20044;-70
2020/12/21 05:18:16;;;;;;;14.75;9.52;;;4.90;80.10;;;;;;5044303;28;20060;-69
2020/12/21 05:20:41;;;;;;;13.73;9.40;;;4.90;80.20;;;;;;5047112;28;20037;-70
2020/12/21 05:23:15;;;;;;;14.00;9.77;;;4.90;80.30;;;;;;5046815;28;20034;-70
2020/12/21 05:25:41;;;;;;;13.88;9.20;;;4.90;80.40;;;;;;5045559;28;20309;-70
2020/12/21 05:28:14;;;;;;;13.45;8.75;;;5.00;80.40;;;;;;5045112;28;20045;-70
2020/12/21 05:31:03;;;;;;;16.10;9.55;;;4.90;80.50;;;;;;5045277;28;20042;-70
2020/12/21 05:33:28;;;;;;;15.13;9.55;;;5.00;80.30;;;;;;5046056;28;20336;-70
2020/12/21 05:36:04;;;;;;;15.77;9.77;;;5.00;80.30;;;;;;5045530;28;20037;-70
2020/12/21 05:38:30;;;;;;;15.35;9.50;;;4.90;80.50;;;;;;5046529;28;20343;-70
2020/12/21 05:41:19;;;;;;;13.82;9.02;;;5.00;80.70;;;;;;5044597;28;20079;-70
2020/12/21 05:43:45;;;;;;;14.90;9.77;;;5.00;80.80;;;;;;5044855;28;20037;-70
2020/12/21 05:46:14;;;;;;;14.07;9.43;;;5.00;80.60;;;;;;5028553;28;20037;-70
2020/12/21 05:48:44;;;;;;;14.80;9.68;;;5.00;80.80;;;;;;5045752;28;20046;-70
2020/12/21 05:51:11;;;;;;;12.88;9.00;;;5.00;80.70;;;;;;5044635;28;20033;-70
2020/12/21 05:53:42;;;;;;;11.50;8.40;;;5.00;80.70;;;;;;5014166;28;20111;-70
2020/12/21 05:56:08;;;;;;;16.13;10.32;;;5.00;80.70;;;;;;5028703;28;20245;-70
2020/12/21 05:58:35;;;;;;;12.70;8.85;;;5.10;80.60;;;;;;5045634;28;20049;-70
2020/12/21 06:01:02;;;;;;;14.18;8.93;;;5.10;80.60;;;;;;5027998;28;20038;-70
2020/12/21 06:03:43;;;;;;;14.27;9.07;;;5.10;80.20;;;;;;5028094;28;20094;-70
2020/12/21 06:06:15;;;;;;;10.95;8.18;;;5.10;80.00;;;;;;5028821;28;20037;-70
2020/12/21 06:08:40;;;;;;;12.77;8.45;;;5.10;80.10;;;;;;5047232;28;20143;-70
2020/12/21 06:11:20;;;;;;;12.68;8.65;;;5.10;80.20;;;;;;5044686;28;20041;-69
2020/12/21 06:13:55;;;;;;;13.32;9.05;;;5.10;80.20;;;;;;5044690;28;20067;-69
2020/12/21 06:16:21;;;;;;;10.82;7.88;;;5.00;79.90;;;;;;5043968;28;20333;-69
2020/12/21 06:19:10;;;;;;;11.57;8.50;;;5.10;79.80;;;;;;5045453;28;20045;-69
2020/12/21 06:21:43;;;;;;;12.93;8.65;;;5.00;79.70;;;;;;5028818;28;20041;-69
2020/12/21 06:24:24;;;;;;;12.55;8.75;;;5.00;80.10;;;;;;5043467;28;20096;-69
2020/12/21 06:26:49;;;;;;;13.05;8.88;;;5.00;80.10;;;;;;5029630;28;20097;-68
2020/12/21 06:29:19;;;;;;;15.75;10.48;;;5.10;79.80;;;;;;5044609;28;20033;-69
2020/12/21 06:31:49;;;;;;;13.65;9.70;;;5.00;79.70;;;;;;5044237;28;20045;-69
2020/12/21 06:34:16;;;;;;;16.80;10.07;;;5.00;80.00;;;;;;5043854;28;20037;-69
2020/12/21 06:36:42;;;;;;;13.80;9.05;;;5.00;80.10;;;;;;5027507;28;20042;-69
2020/12/21 06:39:07;;;;;;;13.02;8.88;;;5.00;80.10;;;;;;5043795;28;20034;-69
2020/12/21 06:41:33;;;;;;;13.63;8.65;;;5.00;79.60;;;;;;5029294;28;20051;-70
2020/12/21 06:43:59;;;;;;;13.68;8.70;;;5.00;79.50;;;;;;5043829;28;20233;-69
2020/12/21 06:46:26;;;;;;;14.98;9.13;;;5.00;79.10;;;;;;5027194;28;20112;-68
2020/12/21 06:49:04;;;;;;;16.83;9.50;;;4.90;79.50;;;;;;5027326;28;20033;-69
2020/12/21 06:51:30;;;;;;;14.80;9.43;;;4.90;78.80;;;;;;5044322;28;20033;-69
2020/12/21 06:54:03;;;;;;;13.70;9.52;;;4.90;78.90;;;;;;5044504;28;20040;-68
2020/12/21 06:56:29;;;;;;;14.98;9.25;;;4.90;78.70;;;;;;5046059;28;20102;-69
2020/12/21 06:58:55;;;;;;;14.65;9.40;;;4.80;78.20;;;;;;5042254;28;20053;-68
2020/12/21 07:01:24;;;;;;;13.63;9.00;;;4.80;78.30;;;;;;5043131;28;20041;-69
2020/12/21 07:03:50;;;;;;;13.90;8.88;;;4.80;78.60;;;;;;5010703;28;20083;-70
2020/12/21 07:06:16;;;;;;;14.48;8.63;;;4.80;78.00;;;;;;5026681;28;20244;-71
2020/12/21 07:08:43;;;;;;;14.70;9.38;;;4.80;77.60;;;;;;5044900;28;20104;-70
2020/12/21 07:11:19;;;;;;;15.95;9.52;;;4.70;78.00;;;;;;5042998;28;20061;-69
2020/12/21 07:13:45;;;;;;;13.57;8.93;;;4.70;77.80;;;;;;5043067;28;20269;-70
2020/12/21 07:16:11;;;;;;;15.60;8.52;;;4.60;78.00;;;;;;5042841;28;20358;-70
2020/12/21 07:18:37;;;;;;;14.13;8.77;;;4.60;77.60;;;;;;5010353;28;20037;-69
2020/12/21 07:21:09;;;;;;;12.32;8.20;;;4.70;77.40;;;;;;5044016;28;20056;-69
2020/12/21 07:23:35;;;;;;;13.32;7.45;;;4.70;77.80;;;;;;5028539;28;20029;-71
2020/12/21 07:26:01;;;;;;;14.52;8.48;;;4.60;77.80;;;;;;5044313;28;20041;-70
2020/12/21 07:28:27;;;;;;;13.98;7.63;;;4.70;78.10;;;;;;5010058;28;20228;-69
2020/12/21 07:30:52;;;;;;;12.27;8.20;;;4.70;77.90;;;;;;5042797;28;20037;-70
2020/12/21 07:33:18;;;;;;;12.05;8.32;;;4.70;77.80;;;;;;5042693;28;20101;-71
2020/12/21 07:35:44;;;;;;;13.95;8.65;;;4.60;78.30;;;;;;5043811;28;20060;-71
2020/12/21 07:38:12;;;;;;;13.10;8.65;;;4.80;78.10;;;;;;5043970;28;20038;-71
2020/12/21 07:40:42;;;;;;;15.80;9.52;;;4.70;78.30;;;;;;5026459;28;20033;-70
2020/12/21 07:43:12;;;;;;;20.02;10.15;;;4.80;78.50;;;;;;5026233;28;20029;-70
2020/12/21 07:45:38;;;;;;;23.67;12.07;;;4.90;78.50;;;;;;5042450;28;20045;-69
2020/12/21 07:48:06;;;;;;;16.52;9.50;;;5.00;78.10;;;;;;5025531;28;20025;-70
2020/12/21 07:50:32;;;;;;;18.73;9.40;;;4.90;77.60;;;;;;5045176;28;20064;-69
2020/12/21 07:52:58;;;;;;;14.98;9.45;;;4.90;77.40;;;;;;5026612;28;20324;-69
2020/12/21 07:55:24;;;;;;;16.83;8.90;;;5.00;77.10;;;;;;5042203;28;20052;-68
2020/12/21 07:57:50;;;;;;;15.30;9.77;;;4.90;77.30;;;;;;5009364;28;20096;-68
2020/12/21 08:00:15;;;;;;;16.17;9.80;;;4.90;77.70;;;;;;5042580;28;20033;-68
2020/12/21 08:02:41;;;;;;;15.95;9.73;;;4.90;78.10;;;;;;5045177;28;20029;-69
2020/12/21 08:05:19;;;;;;;16.58;9.75;;;4.90;77.90;;;;;;5025910;28;20045;-70
2020/12/21 08:07:45;;;;;;;17.85;10.32;;;4.90;77.90;;;;;;5026854;28;20094;-70
2020/12/21 08:10:17;;;;;;;18.88;9.88;;;5.10;78.20;;;;;;5042995;28;20029;-70
2020/12/21 08:12:43;;;;;;;14.48;9.48;;;5.10;78.10;;;;;;5025608;28;20040;-70
2020/12/21 08:15:09;;;;;;;14.70;9.27;;;5.20;78.20;;;;;;5041336;28;20025;-70
2020/12/21 08:17:34;;;;;;;17.58;9.75;;;5.20;78.40;;;;;;5044616;28;20051;-71
2020/12/21 08:20:07;;;;;;;16.65;9.45;;;5.30;78.50;;;;;;5025822;28;20033;-70
2020/12/21 08:22:33;;;;;;;16.15;9.68;;;5.50;78.40;;;;;;5043367;28;20038;-70
2020/12/21 08:25:02;;;;;;;17.75;9.40;;;5.60;78.40;;;;;;5041662;28;20041;-70
2020/12/21 08:27:28;;;;;;;13.73;8.32;;;5.80;78.50;;;;;;5042844;28;20022;-70
2020/12/21 08:30:16;;;;;;;17.20;10.25;;;5.90;78.50;;;;;;5041611;28;20052;-69
2020/12/21 08:32:42;;;;;;;17.27;10.15;;;6.00;78.40;;;;;;5043221;28;20022;-70
2020/12/21 08:35:08;;;;;;;16.77;10.65;;;6.20;78.40;;;;;;5043104;28;20394;-68
2020/12/21 08:37:33;;;;;;;14.70;10.00;;;6.40;78.10;;;;;;5043105;28;20033;-69
2020/12/21 08:40:28;;;;;;;18.10;9.68;;;6.50;78.10;;;;;;5043057;28;20320;-68
2020/12/21 08:42:54;;;;;;;15.07;9.68;;;6.50;77.60;;;;;;5037300;28;20217;-68
2020/12/21 08:45:20;;;;;;;15.93;10.07;;;6.60;78.00;;;;;;5042568;28;20037;-68
2020/12/21 08:47:46;;;;;;;13.85;9.07;;;6.60;78.20;;;;;;5042772;28;20037;-70
2020/12/21 08:50:12;;;;;;;14.32;9.60;;;6.60;78.00;;;;;;5041836;28;20045;-70
2020/12/21 08:52:38;;;;;;;16.77;9.40;;;6.60;78.20;;;;;;5041287;28;20037;-70
2020/12/21 08:55:06;;;;;;;16.75;10.35;;;6.60;78.40;;;;;;5041900;28;20053;-74
2020/12/21 08:57:35;;;;;;;14.15;9.43;;;6.70;78.70;;;;;;5041920;28;20041;-74
2020/12/21 09:00:02;;;;;;;14.25;9.13;;;6.70;78.30;;;;;;5041695;28;20033;-71
2020/12/21 09:02:28;;;;;;;14.20;9.63;;;6.80;78.60;;;;;;5043255;28;20234;-72
2020/12/21 09:04:53;;;;;;;17.77;10.13;;;6.80;78.40;;;;;;5041498;28;20083;-73
2020/12/21 09:07:19;;;;;;;16.95;10.20;;;6.90;78.50;;;;;;5042465;28;20033;-73
2020/12/21 09:09:44;;;;;;;17.38;10.23;;;6.90;78.50;;;;;;5042451;28;20030;-74
2020/12/21 09:12:10;;;;;;;15.60;10.05;;;6.90;78.30;;;;;;5042278;28;20026;-73
2020/12/21 09:14:36;;;;;;;15.50;9.82;;;7.10;78.50;;;;;;5043159;28;20182;-74
2020/12/21 09:17:02;;;;;;;16.23;9.80;;;7.20;77.90;;;;;;5042779;28;20056;-72
2020/12/21 09:19:27;;;;;;;13.43;9.55;;;7.20;78.30;;;;;;5042308;28;20041;-73
2020/12/21 09:21:53;;;;;;;14.20;9.57;;;7.20;78.60;;;;;;5042156;28;20359;-73
2020/12/21 09:24:19;;;;;;;14.25;9.57;;;7.30;78.80;;;;;;5042119;28;20021;-78
2020/12/21 09:26:44;;;;;;;15.52;9.43;;;7.30;78.40;;;;;;5026581;28;20030;-75
2020/12/21 09:29:10;;;;;;;14.30;9.57;;;7.40;78.70;;;;;;5040333;28;20057;-77
2020/12/21 09:31:35;;;;;;;14.65;9.60;;;7.40;78.60;;;;;;5025000;28;20051;-73
2020/12/21 09:34:01;;;;;;;14.93;8.15;;;7.40;78.10;;;;;;5040892;28;20033;-70
2020/12/21 09:36:27;;;;;;;13.93;8.82;;;7.60;77.80;;;;;;5041977;28;20093;-70
2020/12/21 09:38:52;;;;;;;11.98;8.63;;;7.70;77.40;;;;;;5041944;28;20045;-73
2020/12/21 09:41:19;;;;;;;12.05;8.30;;;7.90;77.20;;;;;;5043623;28;20131;-72
2020/12/21 09:43:46;;;;;;;10.38;7.07;;;8.10;76.70;;;;;;5041173;28;20096;-73
2020/12/21 09:46:19;;;;;;;11.27;7.35;;;8.20;76.20;;;;;;5041886;28;20377;-75
2020/12/21 09:48:46;;;;;;;13.27;7.88;;;8.30;75.50;;;;;;5040937;28;20033;-75
2020/12/21 09:51:12;;;;;;;11.57;6.97;;;8.40;75.60;;;;;;5041989;28;20140;-76
2020/12/21 09:53:39;;;;;;;11.13;7.22;;;8.40;75.10;;;;;;5009789;28;20313;-72
2020/12/21 09:56:04;;;;;;;13.40;7.72;;;8.40;74.70;;;;;;5024265;28;20057;-75
2020/12/21 09:58:30;;;;;;;9.82;6.80;;;8.50;74.70;;;;;;5041108;28;20388;-76
2020/12/21 10:00:55;;;;;;;9.55;7.03;;;8.70;74.20;;;;;;5044792;28;20268;-69
2020/12/21 10:03:21;;;;;;;9.13;6.47;;;8.80;74.10;;;;;;5028493;28;20293;-76
2020/12/21 10:05:47;;;;;;;12.73;6.90;;;8.80;73.70;;;;;;5029540;28;20348;-75
2020/12/21 10:08:12;;;;;;;11.00;6.57;;;8.90;73.80;;;;;;5028402;28;20064;-76
2020/12/21 10:10:38;;;;;;;9.93;6.72;;;8.90;73.50;;;;;;5044484;28;20041;-76
2020/12/21 10:13:03;;;;;;;9.02;6.15;;;8.80;73.80;;;;;;5045582;28;20033;-76
2020/12/21 10:15:29;;;;;;;10.98;6.72;;;8.90;74.00;;;;;;5044113;28;20029;-76
2020/12/21 10:17:55;;;;;;;11.73;6.53;;;9.00;73.60;;;;;;5044448;28;20033;-75
2020/12/21 10:20:20;;;;;;;11.15;6.07;;;8.90;73.20;;;;;;5029292;28;20092;-75
2020/12/21 10:22:46;;;;;;;8.10;5.57;;;9.00;73.20;;;;;;5043992;28;20108;-72
2020/12/21 10:25:11;;;;;;;11.20;6.30;;;9.00;73.10;;;;;;5044035;28;20053;-74
2020/12/21 10:27:37;;;;;;;10.85;5.13;;;9.00;73.00;;;;;;5043822;28;20064;-77
2020/12/21 10:30:03;;;;;;;8.77;5.78;;;9.10;72.90;;;;;;5043993;28;20072;-76
2020/12/21 10:32:28;;;;;;;12.57;6.70;;;9.20;72.40;;;;;;5045354;28;20038;-77
2020/12/21 10:34:54;;;;;;;9.38;6.10;;;9.10;72.60;;;;;;5045282;28;20056;-76
2020/12/21 10:37:19;;;;;;;9.65;5.88;;;9.20;72.70;;;;;;5043611;28;20340;-77
2020/12/21 10:39:45;;;;;;;11.15;5.90;;;9.10;72.60;;;;;;5043959;28;20037;-76
2020/12/21 10:42:11;;;;;;;11.15;6.47;;;9.20;72.80;;;;;;5027121;28;20339;-76
2020/12/21 10:44:36;;;;;;;10.43;6.43;;;9.20;72.60;;;;;;5028696;28;20025;-75
2020/12/21 10:47:02;;;;;;;11.43;6.03;;;9.30;72.30;;;;;;5027507;28;20029;-75
2020/12/21 10:49:27;;;;;;;9.95;6.35;;;9.40;72.10;;;;;;5043913;28;20040;-74
2020/12/21 10:51:53;;;;;;;9.52;6.43;;;9.50;71.80;;;;;;5044859;28;20037;-75
2020/12/21 10:54:18;;;;;;;9.63;5.93;;;9.40;71.80;;;;;;5043428;28;20092;-76
2020/12/21 10:56:44;;;;;;;9.38;6.13;;;9.40;71.50;;;;;;5028377;28;20043;-75
2020/12/21 10:59:09;;;;;;;10.13;6.43;;;9.40;71.60;;;;;;5044754;28;20045;-77
2020/12/21 11:01:35;;;;;;;7.95;5.80;;;9.40;72.00;;;;;;5044640;28;20037;-77
2020/12/21 11:04:00;;;;;;;9.35;6.38;;;9.40;71.90;;;;;;5026920;28;20043;-76
2020/12/21 11:06:26;;;;;;;10.82;7.07;;;9.40;72.00;;;;;;5044486;28;20037;-75
2020/12/21 11:08:52;;;;;;;10.32;6.53;;;9.40;72.10;;;;;;5045906;28;20084;-77
2020/12/21 11:11:27;;;;;;;11.02;6.65;;;9.40;72.20;;;;;;5043895;28;20343;-77
2020/12/21 11:13:53;;;;;;;9.57;6.25;;;9.40;72.20;;;;;;5043591;28;20041;-77
2020/12/21 11:16:19;;;;;;;9.52;5.97;;;9.40;72.30;;;;;;5042819;28;20037;-77
2020/12/21 11:18:44;;;;;;;11.50;6.45;;;9.40;72.50;;;;;;5044039;28;20099;-75
2020/12/21 11:21:10;;;;;;;9.98;6.50;;;9.30;72.00;;;;;;5026457;28;20033;-74
2020/12/21 11:23:36;;;;;;;12.93;6.68;;;9.40;72.10;;;;;;5028180;28;20049;-76
2020/12/21 11:26:01;;;;;;;10.60;6.68;;;9.40;72.40;;;;;;5043298;28;20037;-76
2020/12/21 11:28:27;;;;;;;10.93;7.53;;;9.40;72.90;;;;;;5042729;28;20080;-75
2020/12/21 11:30:52;;;;;;;14.40;7.50;;;9.40;72.70;;;;;;5042715;28;20042;-74
2020/12/21 11:33:18;;;;;;;12.32;7.40;;;9.30;72.80;;;;;;5026375;28;20094;-73
2020/12/21 11:35:43;;;;;;;12.35;7.90;;;9.20;73.00;;;;;;5045596;28;20033;-75
2020/12/21 11:38:09;;;;;;;12.23;7.68;;;9.20;72.80;;;;;;5041742;28;20204;-69
2020/12/21 11:40:35;;;;;;;14.10;9.00;;;9.30;72.70;;;;;;5043972;28;20045;-74
2020/12/21 11:43:01;;;;;;;11.73;8.25;;;9.20;72.50;;;;;;5042425;28;20044;-73
2020/12/21 11:45:26;;;;;;;12.02;7.75;;;9.20;72.50;;;;;;5025903;28;20044;-73
2020/12/21 11:47:52;;;;;;;12.30;7.80;;;9.30;72.30;;;;;;5009975;28;20056;-72
2020/12/21 11:50:17;;;;;;;12.18;8.20;;;9.30;72.20;;;;;;5027517;28;20025;-76
2020/12/21 11:52:43;;;;;;;11.07;7.50;;;9.20;72.30;;;;;;5042401;28;20079;-75
2020/12/21 11:55:09;;;;;;;12.75;8.15;;;9.20;72.40;;;;;;5025501;28;20073;-76
2020/12/21 11:57:34;;;;;;;13.65;8.27;;;9.20;72.50;;;;;;5042253;28;20037;-75
2020/12/21 12:00:00;;;;;;;11.95;7.85;;;9.30;72.90;;;;;;5042523;28;20209;-74
2020/12/21 12:02:26;;;;;;;11.73;8.02;;;9.30;72.30;;;;;;5044063;28;20037;-71
2020/12/21 12:04:51;;;;;;;10.10;7.60;;;9.20;72.60;;;;;;5043642;28;20097;-74
2020/12/21 12:07:17;;;;;;;12.63;7.45;;;9.10;72.60;;;;;;5024603;28;20029;-73
2020/12/21 12:09:42;;;;;;;13.45;8.18;;;9.10;72.70;;;;;;5042150;28;20029;-71
2020/12/21 12:12:08;;;;;;;12.38;7.63;;;9.10;72.50;;;;;;5025355;28;20084;-79
2020/12/21 12:14:34;;;;;;;13.52;7.93;;;9.00;72.80;;;;;;5027104;28;20026;-73
2020/12/21 12:16:59;;;;;;;13.80;7.97;;;9.00;72.90;;;;;;5042220;28;20045;-74
2020/12/21 12:19:25;;;;;;;11.15;7.88;;;9.10;72.80;;;;;;5025458;28;20033;-73
2020/12/21 12:21:51;;;;;;;12.45;7.88;;;9.10;73.10;;;;;;5041229;28;20033;-72
2020/12/21 12:24:17;;;;;;;13.65;8.40;;;9.10;73.30;;;;;;5042755;28;20236;-71
2020/12/21 12:26:42;;;;;;;10.73;7.85;;;9.10;73.30;;;;;;5027277;28;20044;-70
2020/12/21 12:29:08;;;;;;;13.88;8.05;;;9.10;73.80;;;;;;5025716;28;20336;-71
2020/12/21 12:31:33;;;;;;;11.23;8.13;;;9.10;73.30;;;;;;5025155;28;20061;-73
2020/12/21 12:33:59;;;;;;;13.85;8.35;;;9.00;73.10;;;;;;5042602;28;20037;-71
2020/12/21 12:36:26;;;;;;;12.90;8.40;;;9.00;73.00;;;;;;5025021;28;20249;-72
2020/12/21 12:38:51;;;;;;;12.23;8.20;;;9.00;73.00;;;;;;5027018;28;20087;-75
2020/12/21 12:41:17;;;;;;;13.82;8.88;;;9.00;73.00;;;;;;5009254;28;20026;-73
2020/12/21 12:43:42;;;;;;;15.73;8.10;;;9.00;72.80;;;;;;5041374;28;20053;-72